首页
METAR-TAF:

METAR-TAF

机场 :

Witham Field

Stuart, 佛罗里达州, 美国

纬度: 27-10-54N, 经度: 080-13-16W, 海拔: 6米

当前天气观测

该预报发布于18分钟前的17:50 UTC
风速8节,风向
温度 32°C
湿度 59%
气压 1015 hPa
能見度: 11.3公里
散云层高于3500英尺

METAR: KSUA 041750Z 09008KT 7SM SCT035 32/23 A2996

时间: 14:08 (18:08 UTC)

预报

该预报发布于42分钟前的17:26 UTC
预报有效从04日的 18点(UTC)到 05日的 18点(UTC)
风速10节,风向
能見度: 10公里
散云层高于3500英尺
散云层高于6000英尺
附近有阵雨
从 04日的 2000点(UTC)
风速9节,风向
能見度: 10公里
散云层高于3500英尺, 积雨云.
多云层高于6000英尺
附近有雷暴
短暂存在
从 04日的 21点(UTC)到 04日的 24点(UTC)
能見度: 4.8公里
多云层高于3500英尺, 积雨云.
阴天层高于8000英尺
雷暴, 雨
从 05日的 0100点(UTC)
风速5节,风向南转西南
能見度: 10公里
散云层高于4000英尺
多云层高于10000英尺
阴天层高于25000英尺
附近有阵雨
从 05日的 0300点(UTC)
风速3节,风向西转西南
能見度: 10公里
少量云层高于10000英尺
多云层高于25000英尺
从 05日的 1500点(UTC)
风速7节,风向西转西南
能見度: 10公里
散云层高于3000英尺
散云层高于15000英尺

TAF: KSUA 041726Z 0418/0518 10010KT P6SM VCSH SCT035 SCT060 FM042000 09009KT P6SM VCTS SCT035CB BKN060 TEMPO 0421/0424 3SM TSRA BKN035CB OVC080 FM050100 21005KT P6SM VCSH SCT040 BKN100 OVC250 FM050300 24003KT P6SM FEW100 BKN250 FM051500 25007KT P6SM SCT030 SCT150

超过4000个机场的气象观测和天气预报(METAR&TAF报告)。

可查询的气象台以黄色和红色小点在地图上表示。

将鼠标移到小点上方,可查看气象台名称。

然后点击查看天气观测和预报。

如需切换地图:点击带黑十字的绿色按钮放大地图;点击带横线的绿色按钮缩小地图;或者点击绿色箭头查看邻近地区的地图。


METAR-TAF: